Time;durP1;ratioP1;P1;durP2;ratioP2;P2;SDS_P1;SDS_P2;PMS_P1;PMS_P2;Temp;Humidity;BMP_temperature;BMP_pressure;BME280_temperature;BME280_humidity;BME280_pressure;Samples;Min_cycle;Max_cycle;Signal;HPM_P1;HPM_P2
2024/03/06 00:04:28;;;;;;;62.40;39.90;;;;;;;-0.33;89.99;98835.04;435496;1250;96649;-40
2024/03/06 00:14:36;;;;;;;60.40;41.20;;;;;;;-0.04;90.31;98834.88;435397;1255;110219;-39
2024/03/06 00:24:44;;;;;;;101.10;51.40;;;;;;;0.17;90.65;98844.30;435375;1255;107856;-39
2024/03/06 00:34:51;;;;;;;83.40;44.80;;;;;;;0.34;91.04;98851.02;435502;1254;97863;-40
2024/03/06 00:44:58;;;;;;;91.80;47.60;;;;;;;0.39;90.93;98848.41;435369;1254;109832;-44
2024/03/06 00:55:06;;;;;;;85.10;52.60;;;;;;;0.40;90.70;98849.85;435375;1254;107714;-39
2024/03/06 01:05:14;;;;;;;85.00;49.60;;;;;;;0.59;91.04;98851.02;435631;1249;97923;-40
2024/03/06 01:15:21;;;;;;;80.00;43.90;;;;;;;0.69;90.88;98849.05;435532;1253;109392;-39
2024/03/06 01:25:29;;;;;;;104.40;55.20;;;;;;;0.83;91.31;98855.25;435315;1254;107689;-39
2024/03/06 01:35:36;;;;;;;111.40;55.60;;;;;;;0.86;91.38;98858.41;435404;1249;96640;-39
2024/03/06 01:45:44;;;;;;;126.00;60.60;;;;;;;0.65;90.89;98865.31;435389;1255;96659;-41
2024/03/06 01:55:51;;;;;;;109.60;56.40;;;;;;;0.57;91.06;98874.93;435374;1253;109472;-40
2024/03/06 02:06:01;;;;;;;103.60;55.30;;;;;;;0.69;91.13;98881.39;435207;1250;107676;-39
2024/03/06 02:16:07;;;;;;;110.30;55.70;;;;;;;0.76;91.07;98881.19;435288;1253;97874;-42
2024/03/06 02:26:13;;;;;;;114.70;58.00;;;;;;;0.87;91.56;98875.39;435559;1255;108492;-40
2024/03/06 02:36:20;;;;;;;137.20;63.20;;;;;;;0.79;91.38;98878.10;437111;1252;97887;-40
2024/03/06 02:46:27;;;;;;;153.80;63.60;;;;;;;0.59;91.23;98881.17;436333;1261;97469;-40
2024/03/06 02:56:35;;;;;;;101.20;54.40;;;;;;;0.40;90.93;98873.29;436366;1252;111208;-40
2024/03/06 03:06:42;;;;;;;77.10;42.80;;;;;;;0.32;90.97;98874.48;436260;1250;108422;-40
2024/03/06 03:16:49;;;;;;;54.80;31.50;;;;;;;0.23;90.91;98876.21;436319;1250;97896;-40
2024/03/06 03:26:57;;;;;;;92.40;30.00;;;;;;;0.06;90.90;98878.29;436259;1253;107856;-40
2024/03/06 03:37:04;;;;;;;85.70;31.30;;;;;;;-0.28;90.73;98885.96;436246;1253;98037;-39
2024/03/06 03:47:12;;;;;;;91.60;33.80;;;;;;;-0.51;90.91;98892.25;436064;1252;97905;-40
2024/03/06 03:57:19;;;;;;;50.60;31.40;;;;;;;-0.65;90.91;98899.99;436327;1253;110159;-40
2024/03/06 04:07:26;;;;;;;38.20;23.10;;;;;;;-0.61;90.76;98900.69;436273;1250;108297;-39
2024/03/06 04:27:41;;;;;;;77.20;28.00;;;;;;;-0.72;90.94;98899.16;435964;1253;451783;-40
2024/03/06 04:37:48;;;;;;;115.70;28.50;;;;;;;-1.06;91.04;98902.05;436364;1252;97887;-41
2024/03/06 04:47:56;;;;;;;45.20;26.80;;;;;;;-1.12;91.24;98912.67;436350;1254;97716;-40
2024/03/06 04:58:03;;;;;;;39.40;25.80;;;;;;;-0.92;91.57;98922.65;436536;1254;108530;-39
2024/03/06 05:18:34;;;;;;;101.90;38.50;;;;;;;-0.70;91.62;98929.23;436397;1252;110653;-40
2024/03/06 05:28:59;;;;;;;121.20;34.90;;;;;;;-0.78;91.67;98928.83;436370;1254;108049;-39
2024/03/06 05:39:24;;;;;;;128.50;41.30;;;;;;;-0.77;91.90;98933.11;436137;1252;98510;-38
2024/03/06 05:49:49;;;;;;;97.90;44.60;;;;;;;-0.74;91.73;98930.94;436245;1261;97374;-38
2024/03/06 06:00:17;;;;;;;68.10;35.10;;;;;;;-0.61;91.63;98933.45;436464;1252;108239;-41
2024/03/06 06:10:25;;;;;;;63.30;31.40;;;;;;;-0.39;91.96;98939.52;436454;1260;97892;-39
2024/03/06 06:20:32;;;;;;;92.10;41.20;;;;;;;-0.20;92.35;98942.13;436343;1252;109861;-38
2024/03/06 06:30:40;;;;;;;120.00;52.70;;;;;;;-0.05;92.53;98945.85;436381;1252;107280;-40
2024/03/06 06:40:47;;;;;;;123.30;57.20;;;;;;;0.10;92.65;98956.83;436509;1252;98517;-41
2024/03/06 06:50:54;;;;;;;104.00;53.50;;;;;;;0.28;92.59;98961.36;436377;1251;97877;-39
2024/03/06 07:01:01;;;;;;;72.40;37.70;;;;;;;0.56;92.51;98965.21;436246;1248;110342;-39
2024/03/06 07:11:10;;;;;;;72.70;38.00;;;;;;;0.85;92.54;98965.40;436270;1251;107582;-39
2024/03/06 07:31:25;;;;;;;77.90;41.00;;;;;;;1.08;93.24;98967.35;436115;1251;109861;-38
2024/03/06 07:51:40;;;;;;;74.80;42.10;;;;;;;1.42;93.11;98974.00;436306;1251;98534;-39
2024/03/06 08:01:46;;;;;;;70.00;40.30;;;;;;;1.53;93.31;98969.83;436382;1253;109754;-38
2024/03/06 08:11:54;;;;;;;52.70;32.80;;;;;;;1.72;93.47;98969.04;436020;1253;110484;-40
2024/03/06 08:22:01;;;;;;;62.60;35.10;;;;;;;1.88;93.70;98978.41;436179;1253;96634;-39
2024/03/06 08:32:11;;;;;;;85.90;45.80;;;;;;;1.86;93.86;98985.38;436259;1251;108796;-40
2024/03/06 08:52:24;;;;;;;58.30;37.60;;;;;;;1.79;94.14;98988.58;435928;1251;97474;-39
2024/03/06 09:02:31;;;;;;;59.40;32.70;;;;;;;1.86;94.22;98988.56;436229;1251;109310;-38
2024/03/06 09:12:37;;;;;;;52.60;29.80;;;;;;;1.96;94.59;98990.91;436004;1251;97970;-39
2024/03/06 09:22:44;;;;;;;48.00;30.50;;;;;;;2.09;94.55;98992.56;435997;1251;112405;-39
2024/03/06 09:32:51;;;;;;;64.40;34.80;;;;;;;2.09;94.67;98995.38;436246;1251;109887;-39
2024/03/06 09:42:58;;;;;;;80.10;41.60;;;;;;;2.03;94.71;98997.45;436245;1251;97954;-39
2024/03/06 09:53:06;;;;;;;58.00;35.60;;;;;;;2.02;94.79;98997.61;436215;1252;111065;-40
2024/03/06 10:03:14;;;;;;;66.80;35.70;;;;;;;2.09;94.95;98999.18;435969;1251;109394;-40
2024/03/06 10:13:23;;;;;;;61.10;34.10;;;;;;;2.17;95.26;99008.80;436165;1251;96664;-39
2024/03/06 10:23:29;;;;;;;67.70;33.20;;;;;;;2.20;95.47;99008.51;436190;1248;109770;-39
2024/03/06 10:33:37;;;;;;;63.90;35.50;;;;;;;2.24;95.66;99008.63;436088;1251;97890;-39
2024/03/06 10:43:49;;;;;;;64.10;32.10;;;;;;;2.30;95.96;99012.57;436057;1251;110728;-39
2024/03/06 10:53:58;;;;;;;62.00;33.10;;;;;;;2.36;95.99;99014.02;436189;1248;108026;-40
2024/03/06 11:04:06;;;;;;;48.00;29.20;;;;;;;2.38;96.18;99012.25;436117;1251;97841;-39
2024/03/06 11:14:12;;;;;;;51.80;28.90;;;;;;;2.42;96.38;99002.58;436149;1251;108758;-39
2024/03/06 11:24:19;;;;;;;62.00;32.80;;;;;;;2.54;96.49;98990.96;436027;1251;97967;-40
2024/03/06 11:34:25;;;;;;;80.10;43.10;;;;;;;2.54;96.69;98989.98;436277;1248;112688;-39
2024/03/06 11:44:33;;;;;;;60.70;32.40;;;;;;;2.59;96.68;98991.19;436215;1251;108072;-39
2024/03/06 11:54:39;;;;;;;64.70;34.10;;;;;;;2.64;96.87;98988.27;436133;1251;97871;-39
2024/03/06 12:04:45;;;;;;;55.00;33.60;;;;;;;2.74;97.03;98984.27;436093;1248;110016;-40
2024/03/06 12:14:58;;;;;;;65.80;36.70;;;;;;;2.81;97.16;98984.02;436019;1248;108154;-39
2024/03/06 12:25:04;;;;;;;83.30;39.70;;;;;;;2.88;97.38;98984.03;436027;1248;97477;-39
2024/03/06 12:35:10;;;;;;;64.20;34.30;;;;;;;2.94;97.49;98979.91;436333;1248;109492;-39
2024/03/06 12:45:16;;;;;;;65.70;36.90;;;;;;;2.99;97.71;98977.95;436054;1251;97810;-39
2024/03/06 12:55:21;;;;;;;56.90;34.80;;;;;;;3.08;97.92;98974.83;436161;1252;110104;-40
2024/03/06 13:05:27;;;;;;;69.40;35.50;;;;;;;3.12;98.19;98977.44;436134;1247;109732;-39
2024/03/06 13:15:33;;;;;;;60.20;32.70;;;;;;;3.29;98.35;98981.84;436189;1251;97549;-39
2024/03/06 13:25:40;;;;;;;66.00;35.20;;;;;;;3.39;98.55;98984.39;436151;1249;110158;-38
2024/03/06 13:35:46;;;;;;;62.40;34.60;;;;;;;3.48;98.68;98983.13;436025;1251;97950;-38
2024/03/06 13:45:51;;;;;;;55.60;32.50;;;;;;;3.56;98.70;98977.48;435934;1253;110321;-39
2024/03/06 13:55:58;;;;;;;49.70;28.90;;;;;;;3.55;98.82;98978.48;436221;1247;111158;-40
2024/03/06 14:06:03;;;;;;;60.70;34.60;;;;;;;3.58;98.96;98980.23;436076;1251;97490;-40
2024/03/06 14:16:10;;;;;;;57.80;33.90;;;;;;;3.62;98.99;98982.05;436083;1252;110485;-39
2024/03/06 14:46:28;;;;;;;64.60;38.60;;;;;;;3.67;99.38;98981.84;435742;1250;109486;-40
2024/03/06 14:56:35;;;;;;;61.50;36.20;;;;;;;3.74;99.45;98994.05;435749;1250;97761;-41
2024/03/06 15:06:41;;;;;;;57.00;32.70;;;;;;;3.87;99.76;98993.27;435693;1252;108820;-40
2024/03/06 15:16:48;;;;;;;52.40;30.90;;;;;;;3.97;99.82;98998.08;435866;1251;96620;-40
2024/03/06 15:26:54;;;;;;;46.10;24.30;;;;;;;4.12;100.00;99003.39;435708;1252;111976;-41
2024/03/06 15:37:00;;;;;;;41.80;24.00;;;;;;;4.16;100.00;99011.13;435621;1248;109686;-40
2024/03/06 15:47:05;;;;;;;52.90;28.30;;;;;;;4.16;100.00;99013.63;435826;1252;96565;-40
2024/03/06 16:17:28;;;;;;;47.80;25.90;;;;;;;4.04;100.00;99023.80;435480;1254;112421;-39
2024/03/06 16:27:35;;;;;;;47.20;28.10;;;;;;;4.01;100.00;99025.63;435375;1252;430216;-40
2024/03/06 16:37:41;;;;;;;37.40;23.30;;;;;;;4.00;100.00;99039.39;436058;1249;97909;-39
2024/03/06 16:47:46;;;;;;;37.80;22.00;;;;;;;3.89;100.00;99043.25;436195;1252;109971;-40
2024/03/06 16:57:52;;;;;;;27.20;18.40;;;;;;;3.84;100.00;99051.90;436217;1252;97933;-40
2024/03/06 17:07:59;;;;;;;35.50;22.80;;;;;;;3.79;100.00;99061.22;436086;1264;111615;-40
2024/03/06 17:18:05;;;;;;;29.30;19.50;;;;;;;3.72;100.00;99072.23;436246;1248;108475;-39
2024/03/06 17:28:12;;;;;;;32.10;19.20;;;;;;;3.63;100.00;99083.86;436258;1251;97970;-39
2024/03/06 17:38:20;;;;;;;33.80;18.70;;;;;;;3.55;100.00;99094.72;436374;1248;109583;-39
2024/03/06 17:48:26;;;;;;;41.80;22.30;;;;;;;3.51;100.00;99101.80;436612;1248;97906;-39
2024/03/06 17:58:33;;;;;;;46.20;24.80;;;;;;;3.47;100.00;99101.96;436500;1251;109548;-39
2024/03/06 18:08:40;;;;;;;48.90;27.10;;;;;;;3.42;100.00;99106.73;436367;1250;108164;-39
2024/03/06 18:18:47;;;;;;;49.90;24.80;;;;;;;3.29;100.00;99123.00;436463;1251;96709;-39
2024/03/06 18:28:55;;;;;;;43.60;22.00;;;;;;;3.22;100.00;99116.80;436387;1251;108579;-39
2024/03/06 18:39:03;;;;;;;48.10;23.30;;;;;;;3.16;100.00;99122.55;436190;1252;96938;-40
2024/03/06 18:59:15;;;;;;;43.50;21.30;;;;;;;3.07;100.00;99141.28;436285;1247;107573;-39
2024/03/06 19:09:22;;;;;;;53.10;23.90;;;;;;;3.06;100.00;99145.60;436334;1251;97964;-38
2024/03/06 19:19:30;;;;;;;53.70;25.70;;;;;;;3.02;100.00;99146.13;436380;1251;107669;-40
2024/03/06 19:29:36;;;;;;;48.50;25.70;;;;;;;2.96;100.00;99158.34;436278;1247;97855;-38
2024/03/06 19:39:44;;;;;;;46.60;21.20;;;;;;;2.95;100.00;99157.63;436205;1253;109679;-38
2024/03/06 19:49:51;;;;;;;42.00;23.00;;;;;;;2.89;100.00;99166.63;436303;1250;106644;-39
2024/03/06 19:59:58;;;;;;;38.90;19.70;;;;;;;2.82;100.00;99169.09;436284;1247;97867;-39
2024/03/06 20:10:10;;;;;;;36.80;18.00;;;;;;;2.75;100.00;99171.38;436347;1261;107313;-40
2024/03/06 20:20:16;;;;;;;39.80;20.50;;;;;;;2.69;100.00;99168.05;436496;1252;97499;-40
2024/03/06 20:30:23;;;;;;;37.80;20.80;;;;;;;2.66;100.00;99170.30;436379;1252;110588;-40
2024/03/06 20:40:32;;;;;;;43.10;21.50;;;;;;;2.61;100.00;99170.09;436198;1252;107626;-41
2024/03/06 20:50:39;;;;;;;37.20;22.00;;;;;;;2.59;100.00;99170.59;436489;1252;97880;-38
2024/03/06 21:00:48;;;;;;;49.70;25.50;;;;;;;2.58;100.00;99169.20;436177;1250;108333;-39
2024/03/06 21:10:54;;;;;;;;;;;;;;;2.58;100.00;99173.63;436318;1247;97242;-39
2024/03/06 21:21:03;;;;;;;39.20;21.50;;;;;;;2.57;100.00;99176.33;436400;1252;109719;-40
2024/03/06 21:31:11;;;;;;;47.40;25.20;;;;;;;2.53;100.00;99179.57;436286;1250;106957;-40
2024/03/06 21:41:18;;;;;;;31.30;19.10;;;;;;;2.58;100.00;99189.67;436289;1250;97903;-40
2024/03/06 21:51:25;;;;;;;39.90;20.30;;;;;;;2.59;100.00;99199.65;436318;1252;108770;-38
2024/03/06 22:01:32;;;;;;;42.80;20.80;;;;;;;2.54;100.00;99202.21;436441;1251;97858;-39
2024/03/06 22:11:41;;;;;;;34.30;19.80;;;;;;;2.53;100.00;99204.66;436393;1252;97887;-40
2024/03/06 22:21:48;;;;;;;46.40;27.10;;;;;;;2.56;100.00;99207.98;436360;1252;107307;-40
2024/03/06 22:31:55;;;;;;;47.90;25.60;;;;;;;2.52;100.00;99209.95;436354;1253;97889;-39
2024/03/06 22:42:02;;;;;;;30.50;18.20;;;;;;;2.49;100.00;99207.18;436469;1248;96629;-39
2024/03/06 23:02:16;;;;;;;49.50;28.60;;;;;;;2.50;100.00;99214.52;436405;1251;97814;-38
2024/03/06 23:12:23;;;;;;;33.70;20.50;;;;;;;2.47;100.00;99219.67;436417;1252;96629;-38
2024/03/06 23:22:30;;;;;;;31.80;18.50;;;;;;;2.49;100.00;99225.75;436236;1253;108332;-41
2024/03/06 23:32:36;;;;;;;40.10;24.00;;;;;;;2.46;100.00;99219.29;436391;1253;97841;-39
2024/03/06 23:42:44;;;;;;;36.50;19.70;;;;;;;2.43;100.00;99217.66;436316;1252;97887;-37
2024/03/06 23:52:51;;;;;;;37.80;21.40;;;;;;;2.43;100.00;99220.14;436443;1253;107904;-40
